Main page
METAR-TAF:

METAR-TAF

Airports :

Islay Airport

Islay, Scotland

latitude: 55-40-55N, longitude: 006-15-24W, elevation: 16 m

Current weather observation

The report was made 20 minutes ago, at 21:20 UTC
Wind 5 kt from the Northeast
Temperature -1°C
Humidity 80%
Pressure 1024 hPa
Visibility 10 km or more
Few clouds at a height of 3500 ft

METAR: EGPI 112120Z 05005KT 9999 FEW035 M01/M04 Q1024

Time: 22:40 (21:40 UTC)

Forecast

The report was made 7 hours and 38 minutes ago, at 14:02 UTC
Forecast valid from 11 at 15 UTC to 11 at 18 UTC
Wind 9 kt from the North/Northwest
Visibility 10 km or more
Scattered clouds at a height of 3000 ft
Probability 30% :
Temporary
from 11 at 15 UTC to 11 at 16 UTC
Visibility: 5000 m
rain showers, snow

TAF: EGPI 111402Z 1115/1118 33009KT 9999 SCT030 PROB30 TEMPO 1115/1116 5000 SHRASN

Weather observations and forecasts of more than 4000 airports (METAR and TAF reports).

The available stations are represented by yellow and red dots on the map.

Hover mouse over dot to see the name of the station.

Then click to see weather observations and forecasts.

To change the map : click on the green buttons with a black cross to zoom in, on the green button with a dash to zoom out, or on the green arrows for adjacent maps.


METAR-TAF: